Time;durP1;ratioP1;P1;durP2;ratioP2;P2;SDS_P1;SDS_P2;PMS_P1;PMS_P2;Temp;Humidity;BMP_temperature;BMP_pressure;BME280_temperature;BME280_humidity;BME280_pressure;Samples;Min_cycle;Max_cycle;Signal;HPM_P1;HPM_P2
2021/12/27 00:01:49;;;;;;;15.98;12.15;;;6.80;99.90;;;;;;5010705;28;20222;-78
2021/12/27 00:04:35;;;;;;;15.48;9.85;;;6.80;99.90;;;;;;5014804;28;20202;-78
2021/12/27 00:07:22;;;;;;;23.63;11.35;;;6.90;99.90;;;;;;5004121;28;20750;-78
2021/12/27 00:10:09;;;;;;;16.98;13.07;;;6.90;99.90;;;;;;5001286;28;20723;-78
2021/12/27 00:12:55;;;;;;;17.15;12.07;;;6.90;99.90;;;;;;5005705;28;20265;-78
2021/12/27 00:15:42;;;;;;;14.45;10.93;;;6.90;99.90;;;;;;5006192;28;20265;-78
2021/12/27 00:18:27;;;;;;;15.85;10.90;;;6.80;99.90;;;;;;5012289;28;20560;-79
2021/12/27 00:21:13;;;;;;;15.50;10.70;;;6.90;99.90;;;;;;5014534;28;20218;-78
2021/12/27 00:24:00;;;;;;;21.75;10.75;;;6.90;99.90;;;;;;5014097;28;20325;-78
2021/12/27 00:26:47;;;;;;;13.23;10.60;;;6.90;99.90;;;;;;5011581;28;20673;-78
2021/12/27 00:29:33;;;;;;;12.95;9.82;;;6.90;99.90;;;;;;5007723;28;20342;-78
2021/12/27 00:32:18;;;;;;;21.27;11.02;;;7.00;99.90;;;;;;5006522;28;20213;-78
2021/12/27 00:35:05;;;;;;;20.80;13.70;;;7.00;99.90;;;;;;5005941;28;20707;-78
2021/12/27 00:37:50;;;;;;;23.23;16.25;;;7.00;99.90;;;;;;5012117;28;20274;-78
2021/12/27 00:40:37;;;;;;;21.90;15.05;;;6.90;99.90;;;;;;5016740;28;20260;-78
2021/12/27 00:43:23;;;;;;;26.75;15.48;;;6.90;99.90;;;;;;5002841;28;20222;-77
2021/12/27 00:46:09;;;;;;;30.00;16.55;;;6.90;99.90;;;;;;5011099;28;20195;-78
2021/12/27 00:48:54;;;;;;;19.77;14.80;;;7.00;99.90;;;;;;5005729;28;20259;-78
2021/12/27 00:51:40;;;;;;;19.07;13.10;;;6.90;99.90;;;;;;5008875;28;20230;-77
2021/12/27 00:54:25;;;;;;;19.60;14.33;;;7.00;99.90;;;;;;5008566;28;20981;-77
2021/12/27 00:57:13;;;;;;;20.37;13.40;;;7.00;99.90;;;;;;5011399;28;20588;-78
2021/12/27 00:59:58;;;;;;;27.90;16.50;;;7.00;99.90;;;;;;5014146;28;20453;-77
2021/12/27 01:02:46;;;;;;;24.40;15.63;;;7.00;99.90;;;;;;5014542;28;20205;-78
2021/12/27 01:05:32;;;;;;;34.92;21.17;;;7.00;99.90;;;;;;5011694;28;20210;-78
2021/12/27 01:08:18;;;;;;;39.15;22.77;;;6.90;99.90;;;;;;5014199;28;20206;-78
2021/12/27 01:11:24;;;;;;;47.40;27.37;;;6.90;99.90;;;;;;5014863;28;20237;-78
2021/12/27 01:14:13;;;;;;;53.23;28.50;;;6.90;99.90;;;;;;5014249;28;20492;-78
2021/12/27 01:16:59;;;;;;;53.40;28.03;;;6.90;99.90;;;;;;5011482;28;20493;-78
2021/12/27 01:19:45;;;;;;;51.72;28.25;;;6.90;99.90;;;;;;5014375;28;20473;-78
2021/12/27 01:22:30;;;;;;;65.72;31.05;;;6.90;99.90;;;;;;5008469;28;20764;-78
2021/12/27 01:25:16;;;;;;;54.85;26.02;;;7.00;99.90;;;;;;5002357;28;20230;-77
2021/12/27 01:28:02;;;;;;;45.53;25.27;;;7.00;99.90;;;;;;5013991;28;20221;-77
2021/12/27 01:30:50;;;;;;;41.33;24.05;;;7.00;99.90;;;;;;5012346;28;20476;-78
2021/12/27 01:33:36;;;;;;;53.08;24.30;;;7.00;99.90;;;;;;5008007;28;20206;-77
2021/12/27 01:36:22;;;;;;;38.20;22.83;;;7.00;99.90;;;;;;5005256;28;20234;-77
2021/12/27 01:39:07;;;;;;;35.53;22.08;;;7.00;99.90;;;;;;5013706;28;20413;-75
2021/12/27 01:41:54;;;;;;;34.53;20.20;;;7.00;99.90;;;;;;5012174;28;20350;-78
2021/12/27 01:44:40;;;;;;;34.03;20.17;;;7.10;99.90;;;;;;5002526;28;20210;-77
2021/12/27 01:47:29;;;;;;;29.52;19.05;;;7.00;99.90;;;;;;5006583;28;20436;-78
2021/12/27 01:50:15;;;;;;;32.40;19.20;;;7.00;99.90;;;;;;5009754;28;20222;-77
2021/12/27 01:53:01;;;;;;;32.58;19.45;;;7.00;99.90;;;;;;5010868;28;20722;-77
2021/12/27 01:55:48;;;;;;;28.10;17.67;;;6.90;99.90;;;;;;5008726;28;20225;-78
2021/12/27 01:58:34;;;;;;;27.58;17.85;;;6.90;99.90;;;;;;5007537;28;20222;-77
2021/12/27 02:01:20;;;;;;;23.98;16.98;;;6.90;99.90;;;;;;5004660;28;20226;-77
2021/12/27 02:04:07;;;;;;;27.20;18.98;;;7.00;99.90;;;;;;5010171;28;20249;-78
2021/12/27 02:06:53;;;;;;;27.60;18.50;;;7.00;99.90;;;;;;5012889;28;20461;-77
2021/12/27 02:09:49;;;;;;;29.60;17.77;;;7.00;99.90;;;;;;5013245;28;20726;-78
2021/12/27 02:12:35;;;;;;;25.48;17.00;;;7.00;99.90;;;;;;5059395;22;20574;-70
2021/12/27 02:15:21;;;;;;;27.75;18.00;;;7.10;99.90;;;;;;5044752;28;20221;-71
2021/12/27 02:18:08;;;;;;;34.42;19.67;;;7.00;99.90;;;;;;5042458;28;20206;-71
2021/12/27 02:20:56;;;;;;;32.63;19.70;;;7.00;99.90;;;;;;5051235;28;20240;-71
2021/12/27 02:23:42;;;;;;;32.78;17.80;;;7.00;99.90;;;;;;5049684;28;20675;-70
2021/12/27 02:26:28;;;;;;;32.22;18.73;;;7.00;99.90;;;;;;5050772;28;20196;-71
2021/12/27 02:29:14;;;;;;;32.05;19.65;;;7.00;99.90;;;;;;5040717;28;20204;-71
2021/12/27 02:31:59;;;;;;;31.23;18.80;;;7.00;99.90;;;;;;5048660;28;20232;-71
2021/12/27 02:34:45;;;;;;;30.02;19.10;;;7.00;99.90;;;;;;5045312;28;20271;-71
2021/12/27 02:37:32;;;;;;;26.17;16.85;;;7.00;99.90;;;;;;5046012;28;20196;-71
2021/12/27 02:40:19;;;;;;;28.48;17.85;;;6.90;99.90;;;;;;5042460;28;20197;-71
2021/12/27 02:43:06;;;;;;;25.60;16.75;;;7.00;99.90;;;;;;5050002;28;20204;-70
2021/12/27 02:45:54;;;;;;;23.30;17.60;;;6.90;99.90;;;;;;5039430;28;20201;-71
2021/12/27 02:48:42;;;;;;;24.98;17.40;;;7.00;99.90;;;;;;5051698;28;20427;-70
2021/12/27 02:51:27;;;;;;;23.90;15.43;;;7.00;99.90;;;;;;5044067;28;20221;-71
2021/12/27 02:54:14;;;;;;;24.90;16.70;;;7.00;99.90;;;;;;5047142;28;20212;-70
2021/12/27 02:57:00;;;;;;;30.88;17.55;;;7.00;99.90;;;;;;5048825;28;20216;-71
2021/12/27 02:59:46;;;;;;;26.45;15.60;;;7.00;99.90;;;;;;5047615;28;20196;-71
2021/12/27 03:02:31;;;;;;;22.48;15.20;;;7.00;99.90;;;;;;5048873;28;20605;-71
2021/12/27 03:05:19;;;;;;;27.25;18.52;;;7.00;99.90;;;;;;5045508;28;20239;-70
2021/12/27 03:08:05;;;;;;;24.48;16.42;;;7.00;99.90;;;;;;5047267;28;20240;-71
2021/12/27 03:10:54;;;;;;;24.23;16.90;;;7.00;99.90;;;;;;5048323;28;20905;-71
2021/12/27 03:13:44;;;;;;;30.13;17.38;;;7.00;99.90;;;;;;5042660;28;20205;-71
2021/12/27 03:16:31;;;;;;;25.70;17.13;;;7.00;99.90;;;;;;5048778;28;20717;-71
2021/12/27 03:19:17;;;;;;;28.85;17.50;;;7.00;99.90;;;;;;5042058;28;20319;-70
2021/12/27 03:22:03;;;;;;;22.65;15.45;;;7.00;99.90;;;;;;5050143;28;20581;-71
2021/12/27 03:24:49;;;;;;;24.73;17.00;;;7.10;99.90;;;;;;5044946;28;20480;-71
2021/12/27 03:27:36;;;;;;;41.33;19.10;;;7.00;99.90;;;;;;5050112;28;20685;-71
2021/12/27 03:30:24;;;;;;;32.72;18.75;;;7.00;99.90;;;;;;5049372;28;20204;-71
2021/12/27 03:33:14;;;;;;;29.00;18.60;;;6.90;99.90;;;;;;5043645;28;20205;-71
2021/12/27 03:36:03;;;;;;;26.85;17.50;;;7.00;99.90;;;;;;5052744;28;20292;-71
2021/12/27 03:38:52;;;;;;;26.45;16.83;;;7.00;99.90;;;;;;5053941;28;20220;-71
2021/12/27 03:41:38;;;;;;;33.47;17.55;;;7.00;99.90;;;;;;5054318;28;20741;-70
2021/12/27 03:44:25;;;;;;;25.02;16.30;;;7.00;99.90;;;;;;5048589;28;20711;-71
2021/12/27 03:47:11;;;;;;;25.35;16.55;;;7.00;99.90;;;;;;5054640;28;20201;-71
2021/12/27 03:49:56;;;;;;;26.17;16.00;;;7.00;99.90;;;;;;5053661;28;20204;-71
2021/12/27 03:52:42;;;;;;;22.23;14.50;;;6.90;99.90;;;;;;5050868;28;20228;-71
2021/12/27 03:55:28;;;;;;;21.70;15.32;;;7.00;99.90;;;;;;5054449;28;20509;-71
2021/12/27 03:58:25;;;;;;;27.40;16.67;;;7.10;99.90;;;;;;5043274;28;20777;-71
2021/12/27 04:01:16;;;;;;;23.40;15.63;;;7.00;99.90;;;;;;5054104;28;20212;-71
2021/12/27 04:04:01;;;;;;;25.35;16.27;;;7.00;99.90;;;;;;5047659;28;20270;-71
2021/12/27 04:06:47;;;;;;;24.48;16.65;;;7.10;99.90;;;;;;5054418;28;20667;-71
2021/12/27 04:09:33;;;;;;;30.08;16.17;;;7.00;99.90;;;;;;5048793;28;20201;-70
2021/12/27 04:12:18;;;;;;;29.42;16.40;;;7.00;99.90;;;;;;5050712;28;20235;-71
2021/12/27 04:15:06;;;;;;;21.95;16.40;;;7.00;99.90;;;;;;5053622;28;20799;-71
2021/12/27 04:17:54;;;;;;;23.52;14.20;;;7.00;99.90;;;;;;5053218;28;20685;-71
2021/12/27 04:20:39;;;;;;;22.10;15.63;;;7.00;99.90;;;;;;5053436;28;20200;-70
2021/12/27 04:23:25;;;;;;;21.00;14.77;;;7.00;99.90;;;;;;5043755;28;20814;-71
2021/12/27 04:26:10;;;;;;;21.65;14.98;;;7.10;99.90;;;;;;5053018;28;20205;-71
2021/12/27 04:28:56;;;;;;;21.75;13.73;;;7.10;99.90;;;;;;5052865;28;20207;-70
2021/12/27 04:31:41;;;;;;;22.75;15.80;;;7.10;99.90;;;;;;5044477;28;20319;-71
2021/12/27 04:34:28;;;;;;;20.95;13.55;;;7.10;99.90;;;;;;5046535;28;20261;-71
2021/12/27 04:37:14;;;;;;;20.58;13.05;;;7.10;99.90;;;;;;5044855;28;20275;-70
2021/12/27 04:40:00;;;;;;;21.95;13.65;;;7.10;99.90;;;;;;5052485;28;20212;-71
2021/12/27 04:42:50;;;;;;;15.75;11.40;;;7.10;99.90;;;;;;5041142;28;20228;-71
2021/12/27 04:45:35;;;;;;;18.05;12.27;;;7.10;99.90;;;;;;5048175;28;20197;-71
2021/12/27 04:48:24;;;;;;;18.33;12.30;;;7.10;99.90;;;;;;5041457;28;20332;-71
2021/12/27 04:51:11;;;;;;;19.75;12.65;;;7.20;99.90;;;;;;5051919;28;20217;-71
2021/12/27 04:53:57;;;;;;;19.05;11.80;;;7.20;99.90;;;;;;5051169;28;20701;-71
2021/12/27 04:56:42;;;;;;;21.77;11.97;;;7.20;99.90;;;;;;5051076;28;20224;-70
2021/12/27 04:59:28;;;;;;;14.27;11.75;;;7.20;99.90;;;;;;5053380;28;20578;-71
2021/12/27 05:02:14;;;;;;;16.23;11.00;;;7.20;99.90;;;;;;5046363;28;20236;-71
2021/12/27 05:05:00;;;;;;;23.95;11.70;;;7.20;99.90;;;;;;5053236;28;20420;-71
2021/12/27 05:07:47;;;;;;;17.75;13.55;;;7.20;99.90;;;;;;5052663;28;20205;-71
2021/12/27 05:10:33;;;;;;;19.33;12.60;;;7.20;99.90;;;;;;5033198;28;20206;-71
2021/12/27 05:13:18;;;;;;;17.65;13.20;;;7.10;99.90;;;;;;5045513;28;20447;-70
2021/12/27 05:16:05;;;;;;;16.42;11.82;;;7.10;99.90;;;;;;5052038;28;20584;-71
2021/12/27 05:18:50;;;;;;;19.70;15.55;;;7.10;99.90;;;;;;5053296;28;20666;-71
2021/12/27 05:21:36;;;;;;;21.95;12.63;;;7.10;99.90;;;;;;5044984;28;20251;-71
2021/12/27 05:24:26;;;;;;;18.67;11.73;;;7.10;99.90;;;;;;5045460;28;20196;-71
2021/12/27 05:27:12;;;;;;;15.55;11.88;;;7.10;99.90;;;;;;5042496;28;20240;-71
2021/12/27 05:29:57;;;;;;;28.08;13.65;;;7.10;99.90;;;;;;5051448;28;20634;-70
2021/12/27 05:32:44;;;;;;;15.20;11.65;;;7.10;99.90;;;;;;5042643;28;20709;-71
2021/12/27 05:35:30;;;;;;;21.85;12.02;;;7.10;99.90;;;;;;5045839;28;20371;-71
2021/12/27 05:38:16;;;;;;;16.00;11.98;;;7.20;99.90;;;;;;5043410;28;20222;-70
2021/12/27 05:41:02;;;;;;;17.65;12.50;;;7.20;99.90;;;;;;5044991;28;20233;-70
2021/12/27 05:43:48;;;;;;;15.07;11.05;;;7.20;99.90;;;;;;5052206;28;20255;-71
2021/12/27 05:46:34;;;;;;;16.92;12.35;;;7.20;99.90;;;;;;5051234;28;20200;-71
2021/12/27 05:49:19;;;;;;;15.52;12.40;;;7.20;99.90;;;;;;5039614;28;20208;-71
2021/12/27 05:52:06;;;;;;;21.15;12.90;;;7.20;99.90;;;;;;5048238;28;20228;-71
2021/12/27 05:54:51;;;;;;;19.90;13.73;;;7.20;99.90;;;;;;5051145;28;20308;-71
2021/12/27 05:57:39;;;;;;;16.73;12.27;;;7.20;99.90;;;;;;5051275;28;20328;-71
2021/12/27 06:00:24;;;;;;;13.98;11.05;;;7.20;99.90;;;;;;5046714;28;20374;-70
2021/12/27 06:03:10;;;;;;;19.73;12.52;;;7.20;99.90;;;;;;5042199;28;20282;-70
2021/12/27 06:05:56;;;;;;;16.30;11.90;;;7.20;99.90;;;;;;5042864;28;20677;-70
2021/12/27 06:08:42;;;;;;;15.82;11.18;;;7.30;99.90;;;;;;5052020;28;20510;-71
2021/12/27 06:11:27;;;;;;;17.50;12.32;;;7.30;99.90;;;;;;5045129;28;20227;-71
2021/12/27 06:14:14;;;;;;;13.03;10.70;;;7.40;99.90;;;;;;5050910;28;20200;-71
2021/12/27 06:17:00;;;;;;;14.57;10.90;;;7.40;99.90;;;;;;5051315;28;20490;-71
2021/12/27 06:19:46;;;;;;;17.38;9.95;;;7.30;99.90;;;;;;5049970;28;20299;-70
2021/12/27 06:22:32;;;;;;;17.30;11.60;;;7.30;99.90;;;;;;5045570;28;20224;-71
2021/12/27 06:25:18;;;;;;;15.40;11.03;;;7.30;99.90;;;;;;5046962;28;20539;-71
2021/12/27 06:28:04;;;;;;;17.30;12.50;;;7.20;99.90;;;;;;5050487;28;21003;-71
2021/12/27 06:30:52;;;;;;;14.10;10.82;;;7.20;99.90;;;;;;5048023;28;20587;-71
2021/12/27 06:33:37;;;;;;;18.77;12.10;;;7.30;99.90;;;;;;5050174;28;20208;-71
2021/12/27 06:36:24;;;;;;;14.43;10.52;;;7.30;99.90;;;;;;5042680;28;20216;-71
2021/12/27 06:39:10;;;;;;;13.35;10.45;;;7.30;99.90;;;;;;5050126;28;20209;-70
2021/12/27 06:41:55;;;;;;;16.55;11.27;;;7.30;99.90;;;;;;5045578;28;20599;-71
2021/12/27 06:44:41;;;;;;;11.48;9.80;;;7.40;99.90;;;;;;5046191;28;20208;-71
2021/12/27 06:47:28;;;;;;;13.68;9.82;;;7.40;99.90;;;;;;5045531;28;20267;-71
2021/12/27 06:50:14;;;;;;;13.60;10.30;;;7.40;99.90;;;;;;5047073;28;20604;-70
2021/12/27 06:52:59;;;;;;;12.55;9.65;;;7.40;99.90;;;;;;5051245;28;20204;-70
2021/12/27 06:55:46;;;;;;;15.73;10.95;;;7.40;99.90;;;;;;5049140;28;20208;-71
2021/12/27 06:58:32;;;;;;;14.65;11.82;;;7.40;99.90;;;;;;5057380;28;20216;-71
2021/12/27 07:01:18;;;;;;;14.13;11.35;;;7.30;99.90;;;;;;5046493;28;20319;-71
2021/12/27 07:04:06;;;;;;;16.20;12.75;;;7.40;99.90;;;;;;5050394;28;20723;-71
2021/12/27 07:06:51;;;;;;;12.98;10.35;;;7.40;99.90;;;;;;5052914;28;20204;-71
2021/12/27 07:09:37;;;;;;;14.60;10.73;;;7.40;99.90;;;;;;5051620;28;20251;-71
2021/12/27 07:12:23;;;;;;;19.30;10.70;;;7.50;99.90;;;;;;5047742;28;20455;-70
2021/12/27 07:15:09;;;;;;;14.73;10.75;;;7.50;99.90;;;;;;5054788;28;21001;-71
2021/12/27 07:17:55;;;;;;;16.52;10.07;;;7.40;99.90;;;;;;5054032;28;20282;-71
2021/12/27 07:20:42;;;;;;;12.80;9.60;;;7.40;99.90;;;;;;5045662;28;20575;-71
2021/12/27 07:23:27;;;;;;;17.60;11.57;;;7.50;99.90;;;;;;5047740;28;20420;-70
2021/12/27 07:26:13;;;;;;;15.02;10.35;;;7.50;99.90;;;;;;5048955;28;20195;-71
2021/12/27 07:28:59;;;;;;;12.13;8.98;;;7.50;99.90;;;;;;5053090;28;20675;-71
2021/12/27 07:31:45;;;;;;;19.80;11.30;;;7.50;99.90;;;;;;5050703;28;20228;-71
2021/12/27 07:34:31;;;;;;;17.75;10.05;;;7.50;99.90;;;;;;5044103;28;20201;-71
2021/12/27 07:37:18;;;;;;;12.48;9.65;;;7.50;99.90;;;;;;5046444;28;20220;-70
2021/12/27 07:40:04;;;;;;;13.05;10.40;;;7.50;99.90;;;;;;5049516;28;20208;-70
2021/12/27 07:42:50;;;;;;;13.50;9.40;;;7.50;99.90;;;;;;5054605;28;20280;-71
2021/12/27 07:45:35;;;;;;;16.02;9.65;;;7.50;99.90;;;;;;5046603;28;20452;-71
2021/12/27 07:48:22;;;;;;;14.37;8.70;;;7.60;99.90;;;;;;5045947;28;20559;-70
2021/12/27 07:51:08;;;;;;;13.15;9.70;;;7.60;99.90;;;;;;5053409;28;20537;-71
2021/12/27 07:53:55;;;;;;;13.80;9.30;;;7.60;99.90;;;;;;5042711;28;20255;-70
2021/12/27 07:56:41;;;;;;;12.93;8.48;;;7.60;99.90;;;;;;5053539;28;20583;-71
2021/12/27 07:59:27;;;;;;;13.53;8.53;;;7.60;99.90;;;;;;5051972;28;20224;-71
2021/12/27 08:02:13;;;;;;;29.60;10.57;;;7.60;99.90;;;;;;5051672;28;20522;-71
2021/12/27 08:04:59;;;;;;;15.10;8.80;;;7.70;99.90;;;;;;5052715;28;20264;-71
2021/12/27 08:07:45;;;;;;;12.02;8.43;;;7.70;99.90;;;;;;5045976;28;20919;-70
2021/12/27 08:10:32;;;;;;;12.75;7.80;;;7.70;99.90;;;;;;5049769;28;20331;-70
2021/12/27 08:13:18;;;;;;;12.77;9.17;;;7.70;99.90;;;;;;5056148;22;20379;-70
2021/12/27 08:16:04;;;;;;;12.87;8.70;;;7.80;99.90;;;;;;5054285;28;20427;-70
2021/12/27 08:18:50;;;;;;;12.48;7.82;;;7.80;99.90;;;;;;5042514;28;20827;-71
2021/12/27 08:21:37;;;;;;;12.20;9.80;;;7.80;99.90;;;;;;5049337;28;20308;-71
2021/12/27 08:24:23;;;;;;;14.20;7.83;;;7.90;99.90;;;;;;5027242;28;20748;-71
2021/12/27 08:27:10;;;;;;;12.43;8.33;;;7.90;99.90;;;;;;5034409;28;20520;-71
2021/12/27 08:29:56;;;;;;;13.13;8.40;;;7.90;99.90;;;;;;5023560;28;20565;-71
2021/12/27 08:32:45;;;;;;;13.93;8.60;;;7.90;99.90;;;;;;5040201;28;20445;-71
2021/12/27 08:35:30;;;;;;;13.80;8.33;;;7.90;99.90;;;;;;5035310;28;20197;-71
2021/12/27 08:38:18;;;;;;;13.20;8.38;;;7.90;99.90;;;;;;5030122;28;20487;-71
2021/12/27 08:41:03;;;;;;;12.57;8.93;;;8.00;99.90;;;;;;5045539;28;20204;-71
2021/12/27 08:43:50;;;;;;;17.17;10.95;;;8.10;99.90;;;;;;5035885;28;20582;-71
2021/12/27 08:46:36;;;;;;;19.90;10.63;;;8.10;99.90;;;;;;5042200;28;20198;-71
2021/12/27 08:49:22;;;;;;;12.87;8.97;;;8.10;99.90;;;;;;5030462;28;20204;-71
2021/12/27 08:52:08;;;;;;;24.00;10.82;;;8.10;99.90;;;;;;5033310;28;20829;-71
2021/12/27 08:54:53;;;;;;;34.17;14.00;;;8.10;99.90;;;;;;5041288;28;20714;-71
2021/12/27 08:57:40;;;;;;;56.47;29.80;;;8.20;99.90;;;;;;5035257;28;20480;-70
2021/12/27 09:00:27;;;;;;;48.27;22.20;;;8.20;99.90;;;;;;5030359;28;20455;-70
2021/12/27 09:03:13;;;;;;;43.23;21.20;;;8.20;99.90;;;;;;5038130;28;20447;-71
2021/12/27 09:05:59;;;;;;;19.60;11.77;;;8.20;99.90;;;;;;5040936;28;20425;-71
2021/12/27 09:08:45;;;;;;;21.43;12.40;;;8.30;99.90;;;;;;5035687;28;20418;-71
2021/12/27 09:11:31;;;;;;;27.90;14.47;;;8.30;99.90;;;;;;5042710;28;20925;-71
2021/12/27 09:14:17;;;;;;;24.90;13.90;;;8.30;99.90;;;;;;5038761;28;20390;-71
2021/12/27 09:17:05;;;;;;;22.33;12.95;;;8.40;99.90;;;;;;5035865;28;21065;-70
2021/12/27 09:19:51;;;;;;;25.00;13.87;;;8.40;99.90;;;;;;5046820;28;20209;-70
2021/12/27 09:22:37;;;;;;;25.40;14.17;;;8.50;99.90;;;;;;5034984;28;20484;-71
2021/12/27 09:25:23;;;;;;;31.80;15.05;;;8.60;99.90;;;;;;5033665;28;20391;-70
2021/12/27 09:28:09;;;;;;;59.93;30.80;;;8.60;99.90;;;;;;5036460;28;20303;-71
2021/12/27 09:30:54;;;;;;;50.38;26.60;;;8.70;99.90;;;;;;5041292;28;20807;-70
2021/12/27 09:33:41;;;;;;;33.13;17.67;;;8.70;99.90;;;;;;5035856;28;20287;-70
2021/12/27 09:36:27;;;;;;;33.23;17.53;;;8.80;99.90;;;;;;5020975;28;20609;-71
2021/12/27 09:39:13;;;;;;;33.67;18.03;;;8.90;99.90;;;;;;5038642;28;20456;-70
2021/12/27 09:41:58;;;;;;;25.00;18.40;;;9.00;99.90;;;;;;5045316;28;20465;-70
2021/12/27 09:44:44;;;;;;;35.63;17.77;;;9.00;99.90;;;;;;5048312;28;20888;-70
2021/12/27 09:47:30;;;;;;;25.40;15.10;;;9.10;99.90;;;;;;5031924;28;20440;-70
2021/12/27 09:50:21;;;;;;;18.23;11.60;;;9.10;99.90;;;;;;5036970;28;20447;-70
2021/12/27 09:53:06;;;;;;;21.53;13.87;;;9.20;99.90;;;;;;5038053;28;20462;-70
2021/12/27 09:55:52;;;;;;;18.93;11.90;;;9.20;99.90;;;;;;5046841;28;20432;-70
2021/12/27 09:58:38;;;;;;;15.87;10.00;;;9.30;99.90;;;;;;5042026;28;20449;-70
2021/12/27 10:01:24;;;;;;;15.57;9.53;;;9.30;99.90;;;;;;5043428;28;20467;-70
2021/12/27 10:04:10;;;;;;;14.60;8.80;;;9.50;99.90;;;;;;5043886;28;20780;-70
2021/12/27 10:06:57;;;;;;;13.93;9.30;;;9.50;99.90;;;;;;5029605;28;20445;-70
2021/12/27 10:09:43;;;;;;;16.80;10.13;;;9.50;99.90;;;;;;5036226;28;20432;-70
2021/12/27 10:12:29;;;;;;;9.57;6.50;;;9.50;99.90;;;;;;5038623;28;20499;-71
2021/12/27 10:15:17;;;;;;;10.20;6.03;;;9.50;99.90;;;;;;5027135;28;20521;-70
2021/12/27 10:18:09;;;;;;;8.23;6.50;;;9.50;99.90;;;;;;5033318;28;20542;-69
2021/12/27 10:20:59;;;;;;;8.63;5.80;;;9.50;99.90;;;;;;5033900;28;20506;-69
2021/12/27 10:23:47;;;;;;;7.30;6.00;;;9.50;99.90;;;;;;5018300;28;20341;-70
2021/12/27 10:26:34;;;;;;;6.93;5.73;;;9.60;99.90;;;;;;5020945;28;20206;-69
2021/12/27 10:29:24;;;;;;;9.67;5.87;;;9.70;99.90;;;;;;5032568;28;20443;-70
2021/12/27 10:32:10;;;;;;;9.60;6.53;;;9.70;99.90;;;;;;5035839;28;20553;-70
2021/12/27 10:34:56;;;;;;;6.70;5.80;;;9.80;99.90;;;;;;5027036;28;20496;-70
2021/12/27 10:37:43;;;;;;;7.00;5.20;;;9.80;99.90;;;;;;5041712;28;20832;-70
2021/12/27 10:40:34;;;;;;;8.57;5.30;;;9.80;99.90;;;;;;5021310;28;20438;-71
2021/12/27 10:43:35;;;;;;;7.93;5.77;;;9.80;99.90;;;;;;5023332;28;20555;-71
2021/12/27 10:46:23;;;;;;;7.30;5.37;;;10.20;99.90;;;;;;5022819;28;20446;-70
2021/12/27 10:49:08;;;;;;;5.77;4.17;;;10.50;99.90;;;;;;5028930;28;20420;-70
2021/12/27 10:51:55;;;;;;;4.97;4.07;;;10.60;99.90;;;;;;5018495;28;20452;-70
2021/12/27 10:54:40;;;;;;;6.33;5.13;;;10.60;99.90;;;;;;5028609;28;20476;-70
2021/12/27 10:57:28;;;;;;;4.57;3.40;;;10.60;99.90;;;;;;5040998;28;20792;-70
2021/12/27 11:00:27;;;;;;;4.30;3.20;;;10.50;99.90;;;;;;5027521;28;20505;-69
2021/12/27 11:03:28;;;;;;;4.90;3.90;;;10.50;99.90;;;;;;5010859;28;20986;-71
2021/12/27 11:06:19;;;;;;;5.70;3.90;;;10.50;99.90;;;;;;5014002;28;20444;-72
2021/12/27 11:09:05;;;;;;;7.60;4.40;;;10.90;99.90;;;;;;5023766;28;20443;-73
2021/12/27 11:11:50;;;;;;;7.87;4.77;;;11.30;99.90;;;;;;5032728;28;20978;-72
2021/12/27 11:14:40;;;;;;;4.90;3.83;;;11.50;99.90;;;;;;5042454;28;20479;-72
2021/12/27 11:17:26;;;;;;;5.37;3.67;;;11.60;99.90;;;;;;5029900;28;20829;-73
2021/12/27 11:20:13;;;;;;;6.83;4.80;;;11.60;99.90;;;;;;5012563;28;20449;-72
2021/12/27 11:23:01;;;;;;;4.63;2.90;;;11.60;99.90;;;;;;5011602;28;20970;-73
2021/12/27 11:25:48;;;;;;;5.17;3.10;;;11.50;99.90;;;;;;5017397;28;20538;-72
2021/12/27 11:28:35;;;;;;;5.57;3.10;;;11.40;99.90;;;;;;5033748;28;20443;-72
2021/12/27 11:31:29;;;;;;;4.13;3.30;;;11.30;99.90;;;;;;5022252;28;20822;-72
2021/12/27 11:34:17;;;;;;;6.60;3.67;;;11.20;99.90;;;;;;5024841;28;20819;-72
2021/12/27 11:37:10;;;;;;;4.17;3.27;;;11.10;99.90;;;;;;5035781;28;20527;-73
2021/12/27 11:40:05;;;;;;;4.20;3.30;;;11.10;99.90;;;;;;5017733;28;20421;-71
2021/12/27 11:42:55;;;;;;;6.20;4.30;;;11.00;99.90;;;;;;5022642;28;20457;-71
2021/12/27 11:45:47;;;;;;;4.87;3.20;;;10.90;99.90;;;;;;5030013;28;20457;-69
2021/12/27 11:48:45;;;;;;;4.23;3.53;;;10.90;99.90;;;;;;5026389;28;20440;-71
2021/12/27 11:51:33;;;;;;;6.20;3.20;;;10.70;99.90;;;;;;5027975;28;20978;-71
2021/12/27 11:54:27;;;;;;;9.83;4.00;;;10.70;99.90;;;;;;5019061;28;20436;-71
2021/12/27 11:57:13;;;;;;;4.57;3.00;;;10.60;99.90;;;;;;5037871;28;20420;-72
2021/12/27 11:59:58;;;;;;;5.63;3.23;;;10.50;99.90;;;;;;5038919;28;20451;-72
2021/12/27 12:02:45;;;;;;;6.33;3.30;;;10.50;99.90;;;;;;5037179;28;20467;-72
2021/12/27 12:05:42;;;;;;;3.97;2.70;;;10.40;99.90;;;;;;5025735;28;20497;-72
2021/12/27 12:08:50;;;;;;;7.03;3.17;;;10.50;99.90;;;;;;5036316;28;20507;-71
2021/12/27 12:11:36;;;;;;;4.33;3.37;;;10.50;99.90;;;;;;5032155;28;20604;-70
2021/12/27 12:14:28;;;;;;;6.13;3.30;;;10.50;99.90;;;;;;5020402;28;21336;-72
2021/12/27 12:17:15;;;;;;;3.90;3.43;;;10.50;99.90;;;;;;5035093;28;20550;-72
2021/12/27 12:20:00;;;;;;;4.33;3.70;;;10.40;99.90;;;;;;5029210;28;20455;-72
2021/12/27 12:22:47;;;;;;;7.43;3.90;;;10.40;99.90;;;;;;5036839;28;20465;-72
2021/12/27 12:25:33;;;;;;;5.40;4.07;;;10.30;99.90;;;;;;5031836;28;20454;-72
2021/12/27 12:28:19;;;;;;;7.20;3.60;;;10.30;99.90;;;;;;5032303;28;20977;-72
2021/12/27 12:31:05;;;;;;;5.10;3.70;;;10.30;99.90;;;;;;5037653;28;20492;-72
2021/12/27 12:33:50;;;;;;;3.50;3.20;;;10.40;99.90;;;;;;5028641;28;20580;-72
2021/12/27 12:36:46;;;;;;;4.73;3.50;;;10.40;99.90;;;;;;5039081;28;20522;-70
2021/12/27 12:39:44;;;;;;;4.27;3.40;;;10.40;99.90;;;;;;5025562;28;20608;-72
2021/12/27 12:42:30;;;;;;;5.03;4.00;;;10.40;99.90;;;;;;5031731;28;20465;-72
2021/12/27 12:45:15;;;;;;;5.80;4.17;;;10.40;99.90;;;;;;5024257;28;20440;-72
2021/12/27 12:48:01;;;;;;;4.97;4.07;;;10.40;99.90;;;;;;5030531;28;20457;-72
2021/12/27 12:50:54;;;;;;;7.73;3.67;;;10.40;99.90;;;;;;5028055;28;20449;-72
2021/12/27 12:53:41;;;;;;;5.50;3.33;;;10.40;99.90;;;;;;5027289;28;20821;-72
2021/12/27 12:56:31;;;;;;;4.90;4.17;;;10.40;99.90;;;;;;5016047;28;20480;-73
2021/12/27 12:59:22;;;;;;;4.73;3.83;;;10.40;99.90;;;;;;5029125;28;20483;-72
2021/12/27 13:02:12;;;;;;;6.97;4.20;;;10.40;99.90;;;;;;5031827;28;20483;-72
2021/12/27 13:04:58;;;;;;;5.20;4.30;;;10.40;99.90;;;;;;5016906;28;20453;-71
2021/12/27 13:07:46;;;;;;;6.30;4.10;;;10.30;99.90;;;;;;5030401;28;20452;-72
2021/12/27 13:10:34;;;;;;;7.07;4.17;;;10.40;99.90;;;;;;5038869;28;20451;-73
2021/12/27 13:13:21;;;;;;;7.03;5.57;;;10.40;99.90;;;;;;5026770;28;20496;-72
2021/12/27 13:16:07;;;;;;;10.07;6.40;;;10.30;99.90;;;;;;5024176;28;20456;-73
2021/12/27 13:18:52;;;;;;;13.00;7.77;;;10.30;99.90;;;;;;5034304;28;20468;-72
2021/12/27 13:21:42;;;;;;;10.27;5.80;;;10.20;99.90;;;;;;5030339;28;20465;-72
2021/12/27 13:24:27;;;;;;;6.20;3.80;;;10.30;99.90;;;;;;5027376;28;20934;-72
2021/12/27 13:27:27;;;;;;;6.27;4.07;;;10.20;99.90;;;;;;5039752;28;20518;-72
2021/12/27 13:30:15;;;;;;;4.63;3.73;;;10.20;99.90;;;;;;5029228;28;20598;-72
2021/12/27 13:33:00;;;;;;;8.40;5.03;;;10.20;99.90;;;;;;5039238;28;20622;-72
2021/12/27 13:35:47;;;;;;;7.43;3.80;;;10.20;99.90;;;;;;5027710;28;20608;-72
2021/12/27 13:38:35;;;;;;;5.97;4.37;;;10.10;99.90;;;;;;5019664;28;20463;-73
2021/12/27 13:41:24;;;;;;;6.27;3.70;;;10.10;99.90;;;;;;5024162;28;20943;-72
2021/12/27 13:44:12;;;;;;;4.80;3.87;;;10.10;99.90;;;;;;5029669;28;20453;-72
2021/12/27 13:47:01;;;;;;;21.80;12.83;;;10.00;99.90;;;;;;5041040;28;20546;-72
2021/12/27 13:49:58;;;;;;;19.43;9.90;;;10.00;99.90;;;;;;5024299;28;20954;-72
2021/12/27 13:52:45;;;;;;;7.57;5.77;;;9.90;99.90;;;;;;5029080;28;20464;-72
2021/12/27 13:55:32;;;;;;;10.00;6.60;;;9.90;99.90;;;;;;5030217;28;20445;-72
2021/12/27 13:58:20;;;;;;;11.73;7.30;;;9.90;99.90;;;;;;5024065;28;20531;-72
2021/12/27 14:01:11;;;;;;;12.80;7.63;;;9.90;99.90;;;;;;5035594;28;20457;-72
2021/12/27 14:04:13;;;;;;;8.07;4.70;;;9.80;99.90;;;;;;5038908;28;20458;-72
2021/12/27 14:07:01;;;;;;;5.37;3.73;;;9.80;99.90;;;;;;5027855;28;20567;-72
2021/12/27 14:09:48;;;;;;;6.13;3.87;;;9.80;99.90;;;;;;5040535;28;20448;-72
2021/12/27 14:12:36;;;;;;;12.03;3.50;;;9.80;99.90;;;;;;5028949;28;20536;-72
2021/12/27 14:15:28;;;;;;;6.37;4.20;;;9.80;99.90;;;;;;5034403;28;20502;-72
2021/12/27 14:18:16;;;;;;;5.70;4.90;;;9.70;99.90;;;;;;5051266;28;21054;-72
2021/12/27 14:21:05;;;;;;;5.38;4.38;;;9.70;99.90;;;;;;5033044;28;20512;-72
2021/12/27 14:24:03;;;;;;;5.97;4.50;;;9.60;99.90;;;;;;5016884;28;20205;-72